Time;durP1;ratioP1;P1;durP2;ratioP2;P2;SDS_P1;SDS_P2;PMS_P1;PMS_P2;Temp;Humidity;BMP_temperature;BMP_pressure;BME280_temperature;BME280_humidity;BME280_pressure;Samples;Min_cycle;Max_cycle;Signal;HPM_P1;HPM_P2
2023/01/05 00:01:40;;;;;;;2.60;2.40;;;;;;;10.31;100.00;97539.44;4991734;28;20201;-61
2023/01/05 00:04:07;;;;;;;2.20;2.10;;;;;;;10.26;100.00;97539.00;4991044;28;20633;-61
2023/01/05 00:06:34;;;;;;;2.40;2.20;;;;;;;10.21;100.00;97533.19;4991600;28;20250;-61
2023/01/05 00:09:01;;;;;;;2.50;2.30;;;;;;;10.17;100.00;97529.09;4991113;28;20240;-61
2023/01/05 00:22:31;;;;;;;2.23;2.10;;;;;;;10.37;100.00;97520.50;4991080;28;20271;-61
2023/01/05 00:24:58;;;;;;;2.50;2.10;;;;;;;10.32;100.00;97526.13;4990492;28;20227;-61
2023/01/05 00:27:24;;;;;;;2.00;1.90;;;;;;;10.28;100.00;97523.84;4991098;28;20204;-61
2023/01/05 00:29:52;;;;;;;2.00;1.90;;;;;;;10.23;100.00;97513.66;4991170;28;20257;-60
2023/01/05 00:32:19;;;;;;;2.03;1.93;;;;;;;10.42;100.00;97524.44;4991461;28;20224;-61
2023/01/05 00:34:45;;;;;;;1.70;1.60;;;;;;;10.34;100.00;97518.94;4990654;28;20220;-61
2023/01/05 00:37:12;;;;;;;1.83;1.73;;;;;;;10.42;100.00;97523.59;4991207;28;20213;-61
2023/01/05 00:39:38;;;;;;;1.60;1.50;;;;;;;10.43;100.00;97507.63;4990631;28;20205;-61
2023/01/05 00:42:05;;;;;;;1.73;1.63;;;;;;;10.43;100.00;97498.84;4991384;28;20212;-62
2023/01/05 00:44:31;;;;;;;1.50;1.40;;;;;;;10.44;100.00;97492.59;4990712;28;20241;-61
2023/01/05 00:46:59;;;;;;;1.80;1.70;;;;;;;10.35;100.00;97480.94;4991330;28;20213;-61
2023/01/05 00:49:26;;;;;;;1.90;1.70;;;;;;;10.40;100.00;97484.06;4990893;28;20225;-61
2023/01/05 00:51:52;;;;;;;1.90;1.47;;;;;;;10.42;100.00;97479.50;4991936;28;20201;-61
2023/01/05 00:54:20;;;;;;;2.00;1.80;;;;;;;10.45;100.00;97479.25;4991683;28;20305;-61
2023/01/05 00:56:48;;;;;;;1.30;1.30;;;;;;;10.43;100.00;97478.53;4991620;28;20205;-64
2023/01/05 00:59:14;;;;;;;1.67;1.57;;;;;;;10.47;100.00;97468.56;4992003;28;20213;-62
2023/01/05 01:01:40;;;;;;;1.33;1.27;;;;;;;10.48;100.00;97459.66;4992299;28;20220;-62
2023/01/05 01:04:08;;;;;;;1.50;1.40;;;;;;;10.45;100.00;97473.13;4992931;28;20198;-62
2023/01/05 01:06:35;;;;;;;1.50;1.40;;;;;;;10.43;100.00;97461.81;4991377;28;20205;-62
2023/01/05 01:09:01;;;;;;;1.40;1.30;;;;;;;10.46;100.00;97451.00;4993715;28;20236;-62
2023/01/05 01:11:28;;;;;;;1.03;1.03;;;;;;;10.42;100.00;97457.50;4995238;28;20547;-64
2023/01/05 01:13:54;;;;;;;0.90;0.90;;;;;;;10.44;100.00;97468.81;4995767;28;20220;-62
2023/01/05 01:16:21;;;;;;;1.33;1.23;;;;;;;10.57;100.00;97458.06;4994332;28;20637;-61
2023/01/05 01:18:49;;;;;;;1.33;1.20;;;;;;;10.50;100.00;97447.16;4994218;28;20214;-61
2023/01/05 01:21:17;;;;;;;1.30;1.30;;;;;;;10.60;100.00;97452.53;4993959;28;20661;-61
2023/01/05 01:23:44;;;;;;;1.37;1.27;;;;;;;10.59;100.00;97446.44;4994289;28;20315;-61
2023/01/05 01:26:12;;;;;;;0.80;0.80;;;;;;;10.56;100.00;97444.00;4993940;28;20213;-61
2023/01/05 01:28:39;;;;;;;1.10;1.00;;;;;;;10.52;100.00;97441.75;4994325;28;20289;-60
2023/01/05 01:31:06;;;;;;;0.87;0.87;;;;;;;10.51;100.00;97448.84;4993331;28;20216;-62
2023/01/05 01:33:34;;;;;;;0.80;0.80;;;;;;;10.59;100.00;97433.22;4994104;28;20208;-61
2023/01/05 01:36:03;;;;;;;1.03;1.00;;;;;;;10.57;100.00;97440.41;4993618;28;20644;-61
2023/01/05 01:38:31;;;;;;;0.80;0.80;;;;;;;10.56;100.00;97438.72;4994146;28;20205;-61
2023/01/05 01:40:58;;;;;;;0.87;0.87;;;;;;;10.57;100.00;97444.84;4993542;28;20209;-62
2023/01/05 01:43:42;;;;;;;1.10;1.07;;;;;;;10.68;100.00;97445.66;4993967;28;20252;-61
2023/01/05 01:46:08;;;;;;;0.63;0.63;;;;;;;10.70;100.00;97438.44;4993858;28;20209;-61
2023/01/05 01:48:36;;;;;;;0.80;0.80;;;;;;;10.67;100.00;97441.34;4993792;28;20221;-61
2023/01/05 01:51:05;;;;;;;3.43;1.10;;;;;;;10.60;100.00;97445.44;4993812;28;20209;-62
2023/01/05 01:53:36;;;;;;;0.90;0.90;;;;;;;10.58;100.00;97443.91;4993927;28;20209;-62
2023/01/05 01:56:05;;;;;;;0.77;0.77;;;;;;;10.57;100.00;97440.41;4993567;28;20205;-61
2023/01/05 01:58:31;;;;;;;0.60;0.60;;;;;;;10.63;100.00;97450.47;4994271;28;20209;-61
2023/01/05 02:00:59;;;;;;;0.70;0.70;;;;;;;10.63;100.00;97453.13;4994061;28;20208;-61
2023/01/05 02:03:26;;;;;;;1.27;0.60;;;;;;;10.64;100.00;97459.25;5016262;28;20185;-62
2023/01/05 02:05:53;;;;;;;3.30;0.70;;;;;;;10.72;100.00;97452.41;5018754;28;20173;-61
2023/01/05 02:08:30;;;;;;;0.53;0.53;;;;;;;10.70;100.00;97451.66;5016912;28;20243;-63
2023/01/05 02:11:09;;;;;;;0.50;0.50;;;;;;;10.73;100.00;97453.25;5017577;28;20189;-61
2023/01/05 02:13:43;;;;;;;0.60;0.60;;;;;;;10.70;100.00;97441.09;5003742;28;20204;-62
2023/01/05 02:16:19;;;;;;;0.70;0.70;;;;;;;10.72;100.00;97436.53;4997941;28;20285;-62
2023/01/05 02:19:06;;;;;;;1.47;0.90;;;;;;;10.65;100.00;97426.56;4993342;28;20205;-61
2023/01/05 02:21:38;;;;;;;1.23;0.60;;;;;;;10.64;100.00;97422.22;4993863;28;20205;-61
2023/01/05 02:24:34;;;;;;;1.10;0.60;;;;;;;10.70;100.00;97425.22;4993551;28;20201;-62
2023/01/05 02:27:30;;;;;;;0.60;0.60;;;;;;;10.62;100.00;97414.44;4970956;28;20205;-61
2023/01/05 02:30:27;;;;;;;0.77;0.73;;;;;;;10.56;100.00;97414.91;4993328;28;20217;-61
2023/01/05 02:32:57;;;;;;;0.83;0.80;;;;;;;10.53;100.00;97415.16;4993280;28;20281;-61
2023/01/05 02:35:31;;;;;;;0.87;0.50;;;;;;;10.49;100.00;97409.28;4993169;28;20201;-61
2023/01/05 02:38:02;;;;;;;0.77;0.77;;;;;;;10.43;100.00;97414.22;4992941;28;20201;-62
2023/01/05 02:40:33;;;;;;;0.77;0.77;;;;;;;10.43;100.00;97408.94;4992518;28;20209;-62
2023/01/05 02:43:00;;;;;;;0.80;0.73;;;;;;;10.42;100.00;97408.09;4992733;28;20204;-61
2023/01/05 02:45:26;;;;;;;1.07;0.70;;;;;;;10.41;100.00;97410.88;4992541;28;20237;-62
2023/01/05 02:47:55;;;;;;;0.67;0.67;;;;;;;10.42;100.00;97408.09;4992893;28;20205;-61
2023/01/05 02:50:25;;;;;;;0.90;0.90;;;;;;;10.46;100.00;97406.88;4992620;28;20225;-62
2023/01/05 02:52:56;;;;;;;0.77;0.77;;;;;;;10.52;100.00;97405.56;4992686;28;20337;-62
2023/01/05 02:55:29;;;;;;;0.97;0.73;;;;;;;10.49;100.00;97397.84;4992037;28;20213;-61
2023/01/05 02:57:58;;;;;;;2.53;0.90;;;;;;;10.49;100.00;97400.50;4992581;28;20213;-60
2023/01/05 03:00:26;;;;;;;0.80;0.80;;;;;;;10.53;100.00;97399.28;4992579;28;20220;-61
2023/01/05 03:02:57;;;;;;;1.03;1.03;;;;;;;10.45;100.00;97397.25;4992626;28;20515;-62
2023/01/05 03:05:27;;;;;;;1.00;0.90;;;;;;;10.47;100.00;97400.66;4991876;28;20660;-61
2023/01/05 03:08:05;;;;;;;0.83;0.80;;;;;;;10.45;100.00;97409.69;4992089;28;20653;-61
2023/01/05 03:16:04;;;;;;;0.83;0.83;;;;;;;10.33;100.00;97410.66;4991966;28;20541;-61
2023/01/05 03:18:33;;;;;;;1.00;0.90;;;;;;;10.32;100.00;97403.66;4992076;28;20197;-62
2023/01/05 03:20:58;;;;;;;0.80;0.80;;;;;;;10.44;100.00;97406.19;4991918;28;20628;-61
2023/01/05 03:37:24;;;;;;;1.07;1.07;;;;;;;10.42;100.00;97417.81;4992021;28;20223;-62
2023/01/05 03:39:51;;;;;;;0.93;0.90;;;;;;;10.36;100.00;97408.59;4991519;28;20193;-62
2023/01/05 03:42:17;;;;;;;1.07;1.07;;;;;;;10.39;100.00;97404.84;4991882;28;20511;-62
2023/01/05 03:44:45;;;;;;;0.67;0.67;;;;;;;10.35;100.00;97411.34;4991129;28;20248;-61
2023/01/05 03:47:12;;;;;;;2.47;1.07;;;;;;;10.35;100.00;97416.63;4991764;28;20235;-62
2023/01/05 03:49:40;;;;;;;0.80;0.80;;;;;;;10.23;100.00;97413.19;4991602;28;20288;-61
2023/01/05 03:52:06;;;;;;;0.97;0.97;;;;;;;10.20;100.00;97412.59;4991458;28;20209;-62
2023/01/05 03:54:33;;;;;;;1.07;1.00;;;;;;;10.14;100.00;97402.44;4992656;28;20228;-62
2023/01/05 03:56:59;;;;;;;0.83;0.80;;;;;;;10.12;100.00;97401.75;4992214;28;20648;-61
2023/01/05 03:59:25;;;;;;;1.20;1.20;;;;;;;10.16;100.00;97393.50;4993208;28;20220;-61
2023/01/05 04:01:52;;;;;;;1.47;1.20;;;;;;;10.13;100.00;97395.50;4993064;28;20205;-62
2023/01/05 04:04:18;;;;;;;0.90;0.90;;;;;;;10.10;100.00;97390.44;4992857;28;20201;-62
2023/01/05 04:06:46;;;;;;;1.10;1.10;;;;;;;10.14;100.00;97398.03;4992756;28;20236;-61
2023/01/05 04:09:13;;;;;;;1.03;1.03;;;;;;;10.13;100.00;97400.78;4991573;28;20229;-61
2023/01/05 04:11:39;;;;;;;1.30;1.20;;;;;;;10.16;100.00;97390.84;4991430;28;20209;-62
2023/01/05 04:14:06;;;;;;;1.03;0.80;;;;;;;10.20;100.00;97388.81;4991802;28;20212;-62
2023/01/05 04:16:32;;;;;;;1.03;1.03;;;;;;;10.27;100.00;97382.88;4991480;28;20200;-61
2023/01/05 04:18:58;;;;;;;0.80;0.80;;;;;;;10.24;100.00;97375.19;4991996;28;20219;-61
2023/01/05 04:21:25;;;;;;;1.40;1.30;;;;;;;10.17;100.00;97370.53;4994578;28;20284;-62
2023/01/05 04:23:53;;;;;;;0.80;0.80;;;;;;;10.16;100.00;97384.72;4994902;28;20205;-61
2023/01/05 04:26:19;;;;;;;1.00;1.00;;;;;;;10.15;100.00;97383.03;4993386;28;20630;-61
2023/01/05 04:28:46;;;;;;;0.80;0.80;;;;;;;10.27;100.00;97377.59;4994155;28;20236;-61
2023/01/05 04:31:12;;;;;;;0.87;0.87;;;;;;;10.20;100.00;97386.16;5008563;28;20181;-62
2023/01/05 04:33:39;;;;;;;0.70;0.70;;;;;;;10.30;100.00;97387.94;5015438;28;20217;-61
2023/01/05 04:36:06;;;;;;;1.00;0.90;;;;;;;10.31;100.00;97392.25;5010364;28;20811;-61
2023/01/05 04:38:33;;;;;;;0.63;0.63;;;;;;;10.22;100.00;97395.66;5009507;28;20211;-61
2023/01/05 04:41:01;;;;;;;0.70;0.70;;;;;;;10.24;100.00;97398.16;4993155;28;20220;-61
2023/01/05 04:43:27;;;;;;;0.70;0.70;;;;;;;10.24;100.00;97401.63;4996219;28;20263;-61
2023/01/05 04:45:54;;;;;;;0.60;0.60;;;;;;;10.28;100.00;97407.50;5005158;28;20208;-61
2023/01/05 04:48:20;;;;;;;0.73;0.73;;;;;;;10.28;100.00;97399.59;5005244;28;20216;-61
2023/01/05 04:50:52;;;;;;;0.67;0.67;;;;;;;10.34;100.00;97399.13;5004233;28;20712;-61
2023/01/05 04:53:18;;;;;;;0.60;0.60;;;;;;;10.31;100.00;97399.34;5005004;28;20208;-60
2023/01/05 04:55:45;;;;;;;0.60;0.60;;;;;;;10.32;100.00;97393.94;5004359;28;20220;-61
2023/01/05 04:58:13;;;;;;;0.87;0.60;;;;;;;10.35;100.00;97396.31;5003910;28;20684;-60
2023/01/05 05:00:39;;;;;;;0.60;0.60;;;;;;;10.31;100.00;97388.75;5004145;28;20197;-61
2023/01/05 05:03:06;;;;;;;0.40;0.40;;;;;;;10.34;100.00;97381.44;5004524;28;20220;-62
2023/01/05 05:05:32;;;;;;;1.27;0.70;;;;;;;10.33;100.00;97395.63;5004215;28;21343;-61
2023/01/05 05:07:59;;;;;;;0.77;0.70;;;;;;;10.35;100.00;97384.91;5004932;28;20200;-61
2023/01/05 05:10:25;;;;;;;0.60;0.60;;;;;;;10.31;100.00;97394.03;5003707;28;20228;-61
2023/01/05 05:12:52;;;;;;;0.40;0.40;;;;;;;10.31;100.00;97388.75;5003964;28;20612;-61
2023/01/05 05:15:20;;;;;;;1.60;0.60;;;;;;;10.27;100.00;97390.00;5004227;28;20201;-60
2023/01/05 05:17:47;;;;;;;0.57;0.57;;;;;;;10.20;100.00;97388.81;5003710;28;20196;-61
2023/01/05 05:20:13;;;;;;;0.83;0.50;;;;;;;10.30;100.00;97393.22;5004176;28;20205;-61
2023/01/05 05:22:40;;;;;;;0.47;0.47;;;;;;;10.24;100.00;97391.06;5003949;28;20569;-61
2023/01/05 05:25:07;;;;;;;0.47;0.47;;;;;;;10.20;100.00;97397.56;5003552;28;20198;-61
2023/01/05 05:27:34;;;;;;;0.50;0.50;;;;;;;10.25;100.00;97407.75;5004120;28;20212;-61
2023/01/05 05:30:01;;;;;;;0.63;0.63;;;;;;;10.24;100.00;97404.28;5003501;28;20225;-60
2023/01/05 05:32:31;;;;;;;0.40;0.40;;;;;;;10.26;100.00;97412.09;5003872;28;20561;-62
2023/01/05 05:34:57;;;;;;;2.03;0.50;;;;;;;10.31;100.00;97418.69;5003514;28;20716;-61
2023/01/05 05:37:24;;;;;;;0.30;0.30;;;;;;;10.32;100.00;97422.19;5003228;28;20200;-61
2023/01/05 05:39:51;;;;;;;0.57;0.40;;;;;;;10.28;100.00;97410.16;5003561;28;20197;-62
2023/01/05 05:42:17;;;;;;;0.50;0.50;;;;;;;10.32;100.00;97403.66;5003015;28;20205;-60
2023/01/05 05:44:44;;;;;;;0.40;0.40;;;;;;;10.34;100.00;97415.81;5002684;28;20236;-61
2023/01/05 05:47:10;;;;;;;0.40;0.40;;;;;;;10.29;100.00;97403.91;5003233;28;20552;-60
2023/01/05 05:49:38;;;;;;;1.47;1.10;;;;;;;10.30;100.00;97413.53;5003183;28;20229;-61
2023/01/05 05:52:04;;;;;;;0.50;0.50;;;;;;;10.29;100.00;97412.69;5003743;28;20204;-61
2023/01/05 05:54:31;;;;;;;1.03;0.60;;;;;;;10.24;100.00;97420.13;5002605;28;20205;-61
2023/01/05 05:56:57;;;;;;;0.30;0.30;;;;;;;10.25;100.00;97426.28;5003447;28;20267;-61
2023/01/05 05:59:24;;;;;;;0.40;0.40;;;;;;;10.23;100.00;97413.19;5003218;28;20204;-57
2023/01/05 06:01:51;;;;;;;0.50;0.50;;;;;;;10.33;100.00;97434.44;5003175;28;20220;-57
2023/01/05 06:04:18;;;;;;;0.50;0.50;;;;;;;10.44;100.00;97435.28;5002701;28;20621;-57
2023/01/05 06:06:46;;;;;;;0.70;0.60;;;;;;;10.52;100.00;97432.00;5002952;28;20209;-57
2023/01/05 06:09:12;;;;;;;0.73;0.53;;;;;;;10.58;100.00;97428.03;5002826;28;20212;-57
2023/01/05 06:11:39;;;;;;;0.40;0.40;;;;;;;10.71;100.00;97434.84;5002365;28;20224;-57
2023/01/05 06:14:06;;;;;;;0.50;0.50;;;;;;;10.73;100.00;97438.22;5002882;28;20221;-57
2023/01/05 06:16:33;;;;;;;0.50;0.50;;;;;;;10.73;100.00;97438.22;5003396;28;20205;-57
2023/01/05 06:18:59;;;;;;;0.40;0.30;;;;;;;10.79;100.00;97447.44;5003029;28;20217;-56
2023/01/05 06:21:25;;;;;;;0.53;0.53;;;;;;;10.71;100.00;97439.28;5002554;28;20217;-57
2023/01/05 06:23:53;;;;;;;0.40;0.40;;;;;;;10.66;100.00;97442.31;5002389;28;20220;-57
2023/01/05 06:26:20;;;;;;;0.83;0.67;;;;;;;10.62;100.00;97447.97;5000885;28;20205;-57
2023/01/05 06:28:46;;;;;;;0.50;0.50;;;;;;;10.70;100.00;97449.03;5001639;28;20220;-57
2023/01/05 06:31:13;;;;;;;0.40;0.40;;;;;;;10.62;100.00;97447.97;5002445;28;20233;-57
2023/01/05 06:33:39;;;;;;;1.10;0.40;;;;;;;10.58;100.00;97444.75;5002691;28;20200;-56
2023/01/05 06:36:06;;;;;;;0.60;0.60;;;;;;;10.57;100.00;97443.03;5002543;28;20215;-56
2023/01/05 06:38:33;;;;;;;1.23;0.67;;;;;;;10.54;100.00;97453.03;5002632;28;20220;-57
2023/01/05 06:41:01;;;;;;;0.40;0.40;;;;;;;10.58;100.00;97450.03;5001642;28;20212;-55
2023/01/05 06:43:27;;;;;;;0.37;0.37;;;;;;;10.48;100.00;97449.09;5001805;28;20208;-59
2023/01/05 06:45:53;;;;;;;0.30;0.30;;;;;;;10.49;100.00;97441.00;4992776;28;20197;-57
2023/01/05 06:48:20;;;;;;;0.47;0.47;;;;;;;10.47;100.00;97436.81;4992747;28;20644;-57
2023/01/05 06:50:46;;;;;;;0.70;0.53;;;;;;;10.42;100.00;97433.69;4991847;28;20953;-56
2023/01/05 06:53:13;;;;;;;0.30;0.30;;;;;;;10.36;100.00;97442.13;4992642;28;20216;-57
2023/01/05 06:55:39;;;;;;;0.40;0.40;;;;;;;10.40;100.00;97447.06;4991649;28;20633;-57
2023/01/05 06:58:07;;;;;;;0.40;0.40;;;;;;;10.49;100.00;97448.94;4992639;28;20544;-57
2023/01/05 07:00:34;;;;;;;0.30;0.30;;;;;;;10.44;100.00;97458.22;5015301;28;20193;-55
2023/01/05 07:03:00;;;;;;;0.50;0.50;;;;;;;10.46;100.00;97457.13;5014701;28;20206;-56
2023/01/05 07:05:26;;;;;;;0.37;0.37;;;;;;;10.53;100.00;97454.84;5011323;28;20193;-58
2023/01/05 07:07:53;;;;;;;0.63;0.50;;;;;;;10.48;100.00;97464.97;4996653;28;20206;-57
2023/01/05 07:10:20;;;;;;;0.40;0.40;;;;;;;10.42;100.00;97460.13;4992733;28;20232;-56
2023/01/05 07:12:47;;;;;;;0.53;0.53;;;;;;;10.42;100.00;97471.56;4993033;28;20216;-57
2023/01/05 07:15:14;;;;;;;0.70;0.67;;;;;;;10.50;100.00;97468.31;4992457;28;20224;-57
2023/01/05 07:17:41;;;;;;;0.60;0.50;;;;;;;10.48;100.00;97472.88;4992228;28;20527;-57
2023/01/05 07:20:09;;;;;;;0.50;0.50;;;;;;;10.58;100.00;97471.19;4992297;28;20197;-57
2023/01/05 07:22:35;;;;;;;0.50;0.50;;;;;;;10.49;100.00;97474.56;4992662;28;20209;-56
2023/01/05 07:25:01;;;;;;;1.33;0.57;;;;;;;10.53;100.00;97465.41;4991617;28;20209;-57
2023/01/05 07:27:28;;;;;;;0.63;0.50;;;;;;;10.58;100.00;97471.19;4992423;28;20200;-57
2023/01/05 07:29:54;;;;;;;0.47;0.47;;;;;;;10.59;100.00;97470.22;4991265;28;20247;-56
2023/01/05 07:32:22;;;;;;;0.50;0.50;;;;;;;10.53;100.00;97478.63;4992322;28;20521;-56
2023/01/05 07:34:49;;;;;;;0.50;0.50;;;;;;;10.59;100.00;97472.03;4991985;28;20208;-57
2023/01/05 07:37:15;;;;;;;0.33;0.33;;;;;;;10.55;100.00;97476.72;4991927;28;20657;-56
2023/01/05 07:39:42;;;;;;;0.70;0.60;;;;;;;10.57;100.00;97480.06;4991523;28;20813;-57
2023/01/05 07:42:08;;;;;;;0.37;0.37;;;;;;;10.58;100.00;97471.19;4991603;28;20666;-55
2023/01/05 07:44:35;;;;;;;0.40;0.40;;;;;;;10.62;100.00;97472.63;4996362;28;20752;-57
2023/01/05 07:47:01;;;;;;;1.23;0.40;;;;;;;10.67;100.00;97475.72;5001800;28;20205;-57
2023/01/05 07:49:29;;;;;;;0.43;0.30;;;;;;;10.66;100.00;97470.56;5001244;28;20262;-57
2023/01/05 07:51:56;;;;;;;0.50;0.50;;;;;;;10.68;100.00;97469.47;5001038;28;20211;-57
2023/01/05 07:54:22;;;;;;;0.40;0.40;;;;;;;10.71;100.00;97471.88;5000838;28;20232;-57
2023/01/05 07:56:49;;;;;;;0.30;0.30;;;;;;;10.83;100.00;97473.53;5000573;28;20655;-57
2023/01/05 07:59:15;;;;;;;0.20;0.20;;;;;;;10.86;100.00;97475.94;5001283;28;20532;-57
2023/01/05 08:01:42;;;;;;;1.10;1.10;;;;;;;10.89;100.00;97483.63;5001922;28;20315;-56
2023/01/05 08:04:09;;;;;;;0.67;0.67;;;;;;;10.94;100.00;97478.81;5001413;28;20212;-56
2023/01/05 08:06:36;;;;;;;0.20;0.20;;;;;;;10.96;100.00;97482.16;5004816;28;20197;-57
2023/01/05 08:10:27;;;;;;;0.40;0.40;;;;;;;10.99;100.00;97481.06;5011733;28;20204;-57
2023/01/05 08:11:50;;;;;;;0.47;0.40;;;;;;;11.03;100.00;97487.78;5007895;28;20278;-58
2023/01/05 08:14:16;;;;;;;0.40;0.40;;;;;;;11.08;100.00;97487.41;5006210;28;20201;-56
2023/01/05 08:16:43;;;;;;;0.40;0.40;;;;;;;11.12;100.00;97480.91;5014658;28;20197;-57
2023/01/05 08:19:10;;;;;;;0.60;0.40;;;;;;;11.16;100.00;97492.94;5009191;28;21429;-57
2023/01/05 08:21:38;;;;;;;1.47;0.30;;;;;;;11.14;100.00;97495.69;5009293;28;20232;-57
2023/01/05 08:24:05;;;;;;;1.03;1.00;;;;;;;11.25;100.00;97489.50;5006979;28;20283;-56
2023/01/05 08:26:31;;;;;;;0.30;0.30;;;;;;;11.21;100.00;97502.16;5005869;28;20208;-57
2023/01/05 08:28:58;;;;;;;0.20;0.20;;;;;;;11.24;100.00;97509.84;5005947;28;20215;-56
2023/01/05 08:31:26;;;;;;;0.13;0.13;;;;;;;11.32;100.00;97514.53;5005053;28;20661;-57
2023/01/05 08:33:56;;;;;;;0.40;0.40;;;;;;;11.33;100.00;97514.41;5005216;28;20201;-57
2023/01/05 08:36:23;;;;;;;0.30;0.30;;;;;;;11.33;100.00;97516.22;5005030;28;20534;-57
2023/01/05 08:38:52;;;;;;;0.20;0.20;;;;;;;11.32;100.00;97514.53;5005369;28;20205;-57
2023/01/05 08:41:20;;;;;;;0.30;0.30;;;;;;;11.33;100.00;97517.06;5004553;28;20308;-57
2023/01/05 08:43:50;;;;;;;0.20;0.20;;;;;;;11.37;100.00;97504.41;5002873;28;20244;-58
2023/01/05 08:46:16;;;;;;;0.27;0.27;;;;;;;11.30;100.00;97511.19;4995267;28;20205;-56
2023/01/05 08:48:43;;;;;;;0.87;0.87;;;;;;;11.28;100.00;97524.53;4994962;28;20201;-57
2023/01/05 08:51:09;;;;;;;1.40;1.30;;;;;;;11.32;100.00;97514.53;4995675;28;20240;-57
2023/01/05 08:53:36;;;;;;;1.87;1.57;;;;;;;11.32;100.00;97530.41;4995228;28;20642;-56
2023/01/05 08:56:04;;;;;;;0.50;0.30;;;;;;;11.32;100.00;97535.72;4996274;28;20205;-57
2023/01/05 08:58:31;;;;;;;0.30;0.30;;;;;;;11.29;100.00;97533.31;4995437;28;20629;-57
2023/01/05 09:00:57;;;;;;;1.33;1.17;;;;;;;11.29;100.00;97530.66;4995153;28;20585;-57
2023/01/05 09:03:23;;;;;;;1.30;1.20;;;;;;;11.28;100.00;97528.97;4995189;28;20649;-57
2023/01/05 09:05:52;;;;;;;0.63;0.63;;;;;;;11.21;100.00;97523.34;4994998;28;20220;-57
2023/01/05 09:08:19;;;;;;;0.63;0.60;;;;;;;11.24;100.00;97528.38;4994384;28;20213;-57
2023/01/05 09:10:45;;;;;;;1.23;0.60;;;;;;;11.19;100.00;97530.59;4993518;28;20217;-57
2023/01/05 09:13:13;;;;;;;0.50;0.50;;;;;;;11.25;100.00;97526.59;4992745;28;20224;-56
2023/01/05 09:15:39;;;;;;;0.40;0.40;;;;;;;11.22;100.00;97537.44;4994200;28;20212;-56
2023/01/05 09:18:06;;;;;;;0.30;0.30;;;;;;;11.34;100.00;97534.59;4994155;28;20219;-56
2023/01/05 09:20:33;;;;;;;0.50;0.50;;;;;;;11.34;100.00;97541.72;4994582;28;20209;-56
2023/01/05 09:23:00;;;;;;;0.50;0.50;;;;;;;11.30;100.00;97549.06;4993936;28;20201;-57
2023/01/05 09:25:26;;;;;;;0.63;0.63;;;;;;;11.36;100.00;97553.03;4998214;28;20284;-57
2023/01/05 09:27:53;;;;;;;0.30;0.30;;;;;;;11.32;100.00;97556.91;5014828;28;20201;-56
2023/01/05 09:30:21;;;;;;;0.43;0.43;;;;;;;11.32;100.00;97556.91;5007179;28;20268;-56
2023/01/05 09:32:47;;;;;;;0.40;0.40;;;;;;;11.32;100.00;97556.91;5003565;28;20665;-56
2023/01/05 09:35:14;;;;;;;0.67;0.40;;;;;;;11.32;100.00;97556.91;4995466;28;20545;-56
2023/01/05 09:37:42;;;;;;;0.50;0.50;;;;;;;11.36;100.00;97547.72;4994724;28;20224;-56
2023/01/05 09:40:10;;;;;;;0.33;0.33;;;;;;;11.41;100.00;97556.97;4993633;28;20237;-56
2023/01/05 09:42:42;;;;;;;0.40;0.40;;;;;;;11.46;100.00;97557.44;4994015;28;21253;-56
2023/01/05 09:45:11;;;;;;;1.80;0.50;;;;;;;11.46;100.00;97561.91;5001047;28;20248;-57
2023/01/05 09:47:41;;;;;;;0.50;0.50;;;;;;;11.42;100.00;97563.13;5003913;28;20217;-56
2023/01/05 09:50:17;;;;;;;0.50;0.50;;;;;;;11.44;100.00;97563.84;5004082;28;20255;-55
2023/01/05 09:52:44;;;;;;;0.30;0.30;;;;;;;11.42;100.00;97563.13;5003551;28;20208;-56
2023/01/05 09:55:14;;;;;;;0.30;0.30;;;;;;;11.44;100.00;97561.19;5003087;28;20205;-56
2023/01/05 09:57:41;;;;;;;0.30;0.30;;;;;;;11.53;100.00;97575.47;5005182;28;20201;-57
2023/01/05 10:00:11;;;;;;;1.63;0.60;;;;;;;11.62;100.00;97575.56;5005229;28;20201;-57
2023/01/05 10:02:44;;;;;;;0.30;0.30;;;;;;;11.67;100.00;97569.88;5005417;28;20206;-57
2023/01/05 10:05:12;;;;;;;0.30;0.30;;;;;;;11.70;100.00;97569.63;5004270;28;20224;-56
2023/01/05 10:07:43;;;;;;;0.50;0.50;;;;;;;11.74;100.00;97566.63;5004156;28;20659;-56
2023/01/05 10:10:18;;;;;;;0.30;0.30;;;;;;;11.78;100.00;97564.56;5003805;28;20228;-56
2023/01/05 10:13:05;;;;;;;0.83;0.83;;;;;;;11.79;100.00;97572.41;5010542;28;20207;-56
2023/01/05 10:15:36;;;;;;;0.70;0.70;;;;;;;11.84;100.00;97564.88;5020864;28;20227;-56
2023/01/05 10:18:10;;;;;;;0.83;0.83;;;;;;;11.82;100.00;97579.25;5013620;28;20208;-57
2023/01/05 10:20:44;;;;;;;0.37;0.37;;;;;;;11.87;100.00;97577.88;5020720;28;20212;-58
2023/01/05 10:23:17;;;;;;;0.30;0.30;;;;;;;11.98;100.00;97569.88;5013476;28;20209;-57
2023/01/05 10:25:47;;;;;;;1.17;0.60;;;;;;;12.30;100.00;97563.66;5003791;28;20324;-57
2023/01/05 10:28:30;;;;;;;1.03;0.70;;;;;;;12.91;100.00;97560.00;5003528;28;20208;-58
2023/01/05 10:30:59;;;;;;;1.40;1.30;;;;;;;13.06;99.87;97554.31;5003336;28;20213;-57
2023/01/05 10:33:44;;;;;;;0.93;0.60;;;;;;;13.21;100.00;97553.84;5004181;28;20204;-58
2023/01/05 10:36:20;;;;;;;0.30;0.30;;;;;;;13.20;99.36;97552.16;5002918;28;21491;-57
2023/01/05 10:38:52;;;;;;;0.30;0.30;;;;;;;13.14;98.92;97546.56;5003619;28;20224;-57
2023/01/05 10:41:22;;;;;;;0.40;0.40;;;;;;;13.12;98.93;97545.84;5001670;28;20205;-57
2023/01/05 10:44:02;;;;;;;0.53;0.53;;;;;;;13.12;100.00;97546.69;5002942;28;20236;-57
2023/01/05 10:46:29;;;;;;;0.50;0.20;;;;;;;13.25;99.39;97543.78;5002041;28;20209;-57
2023/01/05 10:48:57;;;;;;;0.57;0.20;;;;;;;13.06;98.50;97547.19;5002357;28;20211;-57
2023/01/05 10:51:23;;;;;;;0.40;0.30;;;;;;;13.09;99.22;97543.44;5002450;28;20291;-57
2023/01/05 10:53:50;;;;;;;0.40;0.40;;;;;;;13.03;98.63;97542.16;5002051;28;20218;-57
2023/01/05 10:56:23;;;;;;;0.20;0.20;;;;;;;12.85;98.04;97543.78;5002030;28;20220;-57
2023/01/05 10:59:07;;;;;;;0.30;0.30;;;;;;;12.71;99.67;97545.00;5001939;28;20208;-57
2023/01/05 11:01:46;;;;;;;0.20;0.20;;;;;;;12.68;100.00;97539.94;5108468;27;20559;-56
2023/01/05 11:04:15;;;;;;;0.23;0.23;;;;;;;12.60;100.00;97539.78;5109254;28;20201;-57
2023/01/05 11:06:42;;;;;;;0.30;0.30;;;;;;;12.58;100.00;97539.06;5108168;28;20305;-57
2023/01/05 11:09:17;;;;;;;0.30;0.30;;;;;;;12.55;100.00;97544.66;5108276;28;20212;-57
2023/01/05 11:11:57;;;;;;;0.40;0.40;;;;;;;12.46;100.00;97537.50;5108747;28;20207;-56
2023/01/05 11:14:24;;;;;;;0.10;0.10;;;;;;;12.39;100.00;97541.66;5108422;28;20193;-57
2023/01/05 11:16:53;;;;;;;0.40;0.40;;;;;;;12.30;100.00;97537.97;5108615;28;20532;-55
2023/01/05 11:19:22;;;;;;;0.20;0.10;;;;;;;12.22;100.00;97536.97;5108513;28;21262;-56
2023/01/05 11:21:49;;;;;;;0.30;0.30;;;;;;;12.19;100.00;97538.03;5107718;28;20197;-56
2023/01/05 11:24:30;;;;;;;0.50;0.50;;;;;;;12.16;100.00;97537.47;5107968;28;20204;-57
2023/01/05 11:26:58;;;;;;;0.37;0.30;;;;;;;12.19;100.00;97535.38;5109806;28;20201;-56
2023/01/05 11:29:26;;;;;;;1.23;0.80;;;;;;;12.20;100.00;97536.22;5108183;28;20533;-56
2023/01/05 11:31:57;;;;;;;0.20;0.20;;;;;;;12.29;100.00;97543.41;5108069;28;20288;-55
2023/01/05 11:34:30;;;;;;;0.20;0.20;;;;;;;12.30;100.00;97542.44;5107958;28;20583;-56
2023/01/05 11:36:58;;;;;;;0.30;0.30;;;;;;;12.25;100.00;97532.22;5108028;28;20209;-56
2023/01/05 11:39:29;;;;;;;0.30;0.30;;;;;;;12.22;100.00;97518.41;5107466;28;20221;-57
2023/01/05 11:42:14;;;;;;;0.33;0.33;;;;;;;12.20;100.00;97522.97;5107975;28;20205;-56
2023/01/05 11:44:43;;;;;;;0.67;0.40;;;;;;;12.18;100.00;97514.31;5108158;28;20280;-56
2023/01/05 11:47:20;;;;;;;0.10;0.10;;;;;;;12.20;100.00;97515.88;5107261;28;20209;-56
2023/01/05 11:49:46;;;;;;;0.40;0.40;;;;;;;12.19;100.00;97513.31;5110779;28;20216;-56
2023/01/05 11:52:26;;;;;;;0.20;0.20;;;;;;;12.26;100.00;97517.13;5124849;28;20197;-56
2023/01/05 11:54:52;;;;;;;0.20;0.20;;;;;;;12.34;100.00;97510.22;5126866;28;20201;-55
2023/01/05 11:57:22;;;;;;;0.40;0.40;;;;;;;12.36;100.00;97520.69;5121246;28;20224;-56
2023/01/05 11:59:50;;;;;;;0.30;0.30;;;;;;;12.31;100.00;97512.28;5109110;28;20233;-56
2023/01/05 12:02:50;;;;;;;0.33;0.33;;;;;;;12.30;100.00;97507.94;5108203;28;20213;-56
2023/01/05 12:05:25;;;;;;;0.10;0.10;;;;;;;12.33;100.00;97511.16;5104908;28;20204;-56